sensor_id;sensor_type;location;lat;lon;timestamp;pressure;altitude;pressure_sealevel;temperature;humidity
30636;BME280;17400;52.392;9.750;2022-08-11T04:01:47;101808.75;;;20.44;63.35
30636;BME280;17400;52.392;9.750;2022-08-11T04:11:05;101807.84;;;20.08;65.85
30636;BME280;17400;52.392;9.750;2022-08-11T04:13:55;101803.22;;;20.08;66.01
30636;BME280;17400;52.392;9.750;2022-08-11T04:16:55;101805.44;;;20.00;66.44
30636;BME280;17400;52.392;9.750;2022-08-11T04:20:08;101802.56;;;19.94;67.17
30636;BME280;17400;52.392;9.750;2022-08-11T04:23:13;101801.81;;;19.87;67.51
30636;BME280;17400;52.392;9.750;2022-08-11T04:26:27;101796.44;;;19.92;66.48
30636;BME280;17400;52.392;9.750;2022-08-11T04:29:09;101799.19;;;19.92;66.96
30636;BME280;17400;52.392;9.750;2022-08-11T04:31:59;101800.03;;;19.93;67.42
30636;BME280;17400;52.392;9.750;2022-08-11T04:34:46;101802.56;;;19.94;67.36
30636;BME280;17400;52.392;9.750;2022-08-11T04:37:34;101795.03;;;19.90;67.82
30636;BME280;17400;52.392;9.750;2022-08-11T04:43:30;101805.16;;;19.89;68.22
30636;BME280;17400;52.392;9.750;2022-08-11T04:46:43;101807.66;;;19.91;67.75
30636;BME280;17400;52.392;9.750;2022-08-11T04:49:54;101813.16;;;19.91;68.11
30636;BME280;17400;52.392;9.750;2022-08-11T04:53:02;101805.53;;;19.93;68.39
30636;BME280;17400;52.392;9.750;2022-08-11T04:56:05;101813.63;;;19.88;68.13
30636;BME280;17400;52.392;9.750;2022-08-11T04:59:26;101805.16;;;19.89;68.05
30636;BME280;17400;52.392;9.750;2022-08-11T05:02:42;101804.34;;;19.89;68.56
30636;BME280;17400;52.392;9.750;2022-08-11T05:05:22;101818.06;;;19.89;68.70
30636;BME280;17400;52.392;9.750;2022-08-11T05:11:29;101814.84;;;19.73;70.70
30636;BME280;17400;52.392;9.750;2022-08-11T05:14:23;101804.78;;;19.67;71.01
30636;BME280;17400;52.392;9.750;2022-08-11T05:17:14;101805.69;;;19.79;70.36
30636;BME280;17400;52.392;9.750;2022-08-11T05:20:00;101802.03;;;19.86;70.24
30636;BME280;17400;52.392;9.750;2022-08-11T05:22:49;101803.28;;;19.90;70.42
30636;BME280;17400;52.392;9.750;2022-08-11T05:25:36;101800.53;;;19.90;70.39
30636;BME280;17400;52.392;9.750;2022-08-11T05:28:51;101802.50;;;19.83;71.51
30636;BME280;17400;52.392;9.750;2022-08-11T05:31:49;101808.63;;;19.85;72.07
30636;BME280;17400;52.392;9.750;2022-08-11T05:34:42;101804.63;;;19.80;72.87
30636;BME280;17400;52.392;9.750;2022-08-11T05:37:24;101803.13;;;19.85;72.75
30636;BME280;17400;52.392;9.750;2022-08-11T05:40:05;101808.75;;;19.90;72.68
30636;BME280;17400;52.392;9.750;2022-08-11T05:42:55;101819.13;;;19.88;72.71
30636;BME280;17400;52.392;9.750;2022-08-11T05:45:42;101818.66;;;19.91;73.70
30636;BME280;17400;52.392;9.750;2022-08-11T05:48:35;101810.94;;;20.00;72.23
30636;BME280;17400;52.392;9.750;2022-08-11T05:51:21;101814.50;;;20.00;73.01
30636;BME280;17400;52.392;9.750;2022-08-11T05:54:22;101811.22;;;20.10;72.12
30636;BME280;17400;52.392;9.750;2022-08-11T05:57:19;101806.06;;;20.13;71.06
30636;BME280;17400;52.392;9.750;2022-08-11T06:00:09;101811.50;;;20.20;70.80
30636;BME280;17400;52.392;9.750;2022-08-11T06:02:41;101808.03;;;20.25;71.66
30636;BME280;17400;52.392;9.750;2022-08-11T06:05:10;101814.34;;;20.25;71.89
30636;BME280;17400;52.392;9.750;2022-08-11T06:07:39;101814.72;;;20.29;71.43
30636;BME280;17400;52.392;9.750;2022-08-11T06:10:24;101819.75;;;20.32;73.19
30636;BME280;17400;52.392;9.750;2022-08-11T06:12:54;101816.66;;;20.40;72.54
30636;BME280;17400;52.392;9.750;2022-08-11T06:15:24;101818.25;;;20.48;71.24
30636;BME280;17400;52.392;9.750;2022-08-11T06:17:54;101814.78;;;20.53;72.43
30636;BME280;17400;52.392;9.750;2022-08-11T06:20:22;101810.47;;;20.57;72.13
30636;BME280;17400;52.392;9.750;2022-08-11T06:22:56;101813.09;;;20.63;70.61
30636;BME280;17400;52.392;9.750;2022-08-11T06:25:29;101802.63;;;20.72;71.17
30636;BME280;17400;52.392;9.750;2022-08-11T06:27:59;101801.75;;;20.72;71.89
30636;BME280;17400;52.392;9.750;2022-08-11T06:30:35;101807.19;;;20.78;71.34
30636;BME280;17400;52.392;9.750;2022-08-11T06:33:08;101802.75;;;20.89;70.79
30636;BME280;17400;52.392;9.750;2022-08-11T06:35:45;101802.88;;;20.94;71.31
30636;BME280;17400;52.392;9.750;2022-08-11T06:38:22;101799.63;;;20.97;70.80
30636;BME280;17400;52.392;9.750;2022-08-11T06:40:55;101800.09;;;21.06;70.59
30636;BME280;17400;52.392;9.750;2022-08-11T06:43:55;101799.09;;;21.24;69.86
30636;BME280;17400;52.392;9.750;2022-08-11T06:46:32;101802.19;;;21.40;69.27
30636;BME280;17400;52.392;9.750;2022-08-11T06:49:04;101801.56;;;21.50;67.97
30636;BME280;17400;52.392;9.750;2022-08-11T06:51:53;101802.53;;;21.55;68.15
30636;BME280;17400;52.392;9.750;2022-08-11T06:54:28;101806.81;;;21.63;66.73
30636;BME280;17400;52.392;9.750;2022-08-11T06:56:58;101806.81;;;21.63;68.39
30636;BME280;17400;52.392;9.750;2022-08-11T07:00:01;101806.09;;;21.68;67.13
30636;BME280;17400;52.392;9.750;2022-08-11T07:02:57;101802.09;;;21.75;66.74
30636;BME280;17400;52.392;9.750;2022-08-11T07:05:38;101809.63;;;21.80;67.18
30636;BME280;17400;52.392;9.750;2022-08-11T07:08:34;101809.38;;;21.82;67.58
30636;BME280;17400;52.392;9.750;2022-08-11T07:11:54;101809.31;;;21.93;68.00
30636;BME280;17400;52.392;9.750;2022-08-11T07:14:49;101810.38;;;22.04;67.49
30636;BME280;17400;52.392;9.750;2022-08-11T07:17:41;101809.03;;;22.07;66.72
30636;BME280;17400;52.392;9.750;2022-08-11T07:20:15;101805.97;;;22.20;65.64
30636;BME280;17400;52.392;9.750;2022-08-11T07:23:02;101808.31;;;22.28;65.34
30636;BME280;17400;52.392;9.750;2022-08-11T07:25:51;101817.06;;;22.37;64.63
30636;BME280;17400;52.392;9.750;2022-08-11T07:28:40;101809.69;;;22.43;64.49
30636;BME280;17400;52.392;9.750;2022-08-11T07:31:29;101815.28;;;22.48;64.60
30636;BME280;17400;52.392;9.750;2022-08-11T07:34:14;101802.16;;;22.55;64.11
30636;BME280;17400;52.392;9.750;2022-08-11T07:36:48;101814.69;;;22.63;64.61
30636;BME280;17400;52.392;9.750;2022-08-11T07:39:19;101810.34;;;22.67;64.87
30636;BME280;17400;52.392;9.750;2022-08-11T07:41:49;101813.53;;;22.76;63.41
30636;BME280;17400;52.392;9.750;2022-08-11T07:44:17;101801.78;;;22.86;63.39
30636;BME280;17400;52.392;9.750;2022-08-11T07:46:47;101809.25;;;22.85;63.08
30636;BME280;17400;52.392;9.750;2022-08-11T07:49:36;101800.13;;;22.85;63.37
30636;BME280;17400;52.392;9.750;2022-08-11T07:52:24;101808.16;;;22.86;62.13
30636;BME280;17400;52.392;9.750;2022-08-11T07:55:02;101804.72;;;22.96;62.17
30636;BME280;17400;52.392;9.750;2022-08-11T07:57:34;101804.25;;;23.04;62.13
30636;BME280;17400;52.392;9.750;2022-08-11T08:00:43;101796.66;;;23.11;61.16
30636;BME280;17400;52.392;9.750;2022-08-11T08:03:36;101805.53;;;23.13;60.40
30636;BME280;17400;52.392;9.750;2022-08-11T08:06:25;101807.78;;;23.17;60.24
30636;BME280;17400;52.392;9.750;2022-08-11T08:09:12;101805.41;;;23.25;60.35
30636;BME280;17400;52.392;9.750;2022-08-11T08:12:01;101808.91;;;23.38;59.98
30636;BME280;17400;52.392;9.750;2022-08-11T08:14:47;101811.69;;;23.43;58.76
30636;BME280;17400;52.392;9.750;2022-08-11T08:17:33;101797.31;;;23.41;58.36
30636;BME280;17400;52.392;9.750;2022-08-11T08:20:45;101808.72;;;23.44;58.58
30636;BME280;17400;52.392;9.750;2022-08-11T08:23:17;101799.69;;;23.54;58.24
30636;BME280;17400;52.392;9.750;2022-08-11T08:25:59;101802.31;;;23.66;58.20
30636;BME280;17400;52.392;9.750;2022-08-11T08:28:27;101797.16;;;23.75;57.75
30636;BME280;17400;52.392;9.750;2022-08-11T08:30:58;101795.28;;;23.81;56.14
30636;BME280;17400;52.392;9.750;2022-08-11T08:33:28;101797.47;;;23.78;56.60
30636;BME280;17400;52.392;9.750;2022-08-11T08:35:58;101798.31;;;23.79;57.10
30636;BME280;17400;52.392;9.750;2022-08-11T08:38:40;101789.22;;;23.84;56.88
30636;BME280;17400;52.392;9.750;2022-08-11T08:41:10;101790.72;;;23.91;56.37
30636;BME280;17400;52.392;9.750;2022-08-11T08:43:44;101795.50;;;24.01;56.11
30636;BME280;17400;52.392;9.750;2022-08-11T08:46:17;101791.16;;;24.05;55.68
30636;BME280;17400;52.392;9.750;2022-08-11T08:48:46;101782.59;;;24.07;55.36
30636;BME280;17400;52.392;9.750;2022-08-11T08:51:15;101784.56;;;24.11;55.33
30636;BME280;17400;52.392;9.750;2022-08-11T08:54:28;101789.09;;;24.23;54.57
30636;BME280;17400;52.392;9.750;2022-08-11T08:56:57;101787.34;;;24.44;55.11
30636;BME280;17400;52.392;9.750;2022-08-11T08:59:32;101788.19;;;24.50;54.94
30636;BME280;17400;52.392;9.750;2022-08-11T09:02:15;101789.59;;;24.52;53.12
30636;BME280;17400;52.392;9.750;2022-08-11T09:05:00;101781.34;;;24.57;51.54
30636;BME280;17400;52.392;9.750;2022-08-11T09:07:30;101782.69;;;24.55;50.31
30636;BME280;17400;52.392;9.750;2022-08-11T09:10:08;101780.53;;;24.62;51.18
30636;BME280;17400;52.392;9.750;2022-08-11T09:12:39;101770.38;;;24.68;51.02
30636;BME280;17400;52.392;9.750;2022-08-11T09:15:09;101768.22;;;24.80;47.34
30636;BME280;17400;52.392;9.750;2022-08-11T09:17:39;101770.69;;;24.76;46.72
30636;BME280;17400;52.392;9.750;2022-08-11T09:20:12;101764.63;;;24.80;46.46
30636;BME280;17400;52.392;9.750;2022-08-11T09:22:42;101767.94;;;24.82;46.98
30636;BME280;17400;52.392;9.750;2022-08-11T09:25:52;101757.75;;;24.87;45.14
30636;BME280;17400;52.392;9.750;2022-08-11T09:28:41;101761.09;;;24.94;42.07
30636;BME280;17400;52.392;9.750;2022-08-11T09:31:09;101750.06;;;25.00;42.84
30636;BME280;17400;52.392;9.750;2022-08-11T09:33:40;101750.34;;;25.03;43.32
30636;BME280;17400;52.392;9.750;2022-08-11T09:36:11;101753.16;;;25.08;42.80
30636;BME280;17400;52.392;9.750;2022-08-11T09:39:09;101750.97;;;25.16;41.93
30636;BME280;17400;52.392;9.750;2022-08-11T09:41:59;101743.75;;;25.20;41.56
30636;BME280;17400;52.392;9.750;2022-08-11T09:44:32;101738.25;;;25.25;39.92
30636;BME280;17400;52.392;9.750;2022-08-11T09:47:20;101743.22;;;25.28;39.45
30636;BME280;17400;52.392;9.750;2022-08-11T09:49:52;101742.44;;;25.33;39.12
30636;BME280;17400;52.392;9.750;2022-08-11T09:52:22;101739.13;;;25.36;41.17
30636;BME280;17400;52.392;9.750;2022-08-11T09:54:52;101737.47;;;25.40;41.92
30636;BME280;17400;52.392;9.750;2022-08-11T09:57:23;101726.41;;;25.40;40.32
30636;BME280;17400;52.392;9.750;2022-08-11T10:00:11;101728.66;;;25.43;39.69
30636;BME280;17400;52.392;9.750;2022-08-11T10:02:42;101732.81;;;25.46;40.24
30636;BME280;17400;52.392;9.750;2022-08-11T10:05:14;101720.34;;;25.53;39.60
30636;BME280;17400;52.392;9.750;2022-08-11T10:08:02;101726.75;;;25.64;39.12
30636;BME280;17400;52.392;9.750;2022-08-11T10:10:33;101724.00;;;25.69;39.69
30636;BME280;17400;52.392;9.750;2022-08-11T10:13:06;101718.44;;;25.69;39.40
30636;BME280;17400;52.392;9.750;2022-08-11T10:15:55;101703.19;;;25.67;39.31
30636;BME280;17400;52.392;9.750;2022-08-11T10:18:43;101713.44;;;25.66;39.12
30636;BME280;17400;52.392;9.750;2022-08-11T10:21:25;101711.78;;;25.70;39.40
30636;BME280;17400;52.392;9.750;2022-08-11T10:23:56;101700.97;;;25.74;39.65
30636;BME280;17400;52.392;9.750;2022-08-11T10:26:44;101695.97;;;25.81;39.23
30636;BME280;17400;52.392;9.750;2022-08-11T10:29:29;101693.47;;;25.90;36.42
30636;BME280;17400;52.392;9.750;2022-08-11T10:32:20;101696.84;;;25.97;36.89
30636;BME280;17400;52.392;9.750;2022-08-11T10:35:25;101689.06;;;26.04;37.47
30636;BME280;17400;52.392;9.750;2022-08-11T10:37:54;101686.84;;;26.11;37.23
30636;BME280;17400;52.392;9.750;2022-08-11T10:40:38;101684.88;;;26.02;37.20
30636;BME280;17400;52.392;9.750;2022-08-11T10:43:07;101682.97;;;25.97;37.49
30636;BME280;17400;52.392;9.750;2022-08-11T10:45:43;101682.09;;;25.97;36.71
30636;BME280;17400;52.392;9.750;2022-08-11T10:48:34;101674.63;;;25.97;37.17
30636;BME280;17400;52.392;9.750;2022-08-11T10:51:04;101670.47;;;25.94;37.13
30636;BME280;17400;52.392;9.750;2022-08-11T10:54:04;101669.34;;;25.95;37.40
30636;BME280;17400;52.392;9.750;2022-08-11T10:56:49;101674.63;;;25.97;37.17
30636;BME280;17400;52.392;9.750;2022-08-11T10:59:37;101669.63;;;25.99;37.79
30636;BME280;17400;52.392;9.750;2022-08-11T11:02:09;101675.22;;;26.09;37.04
30636;BME280;17400;52.392;9.750;2022-08-11T11:04:51;101672.97;;;26.17;36.94
30636;BME280;17400;52.392;9.750;2022-08-11T11:07:34;101669.34;;;26.26;35.93
30636;BME280;17400;52.392;9.750;2022-08-11T11:10:10;101664.91;;;26.36;36.36
30636;BME280;17400;52.392;9.750;2022-08-11T11:12:39;101662.94;;;26.31;36.43
30636;BME280;17400;52.392;9.750;2022-08-11T11:15:28;101660.72;;;26.43;35.77
30636;BME280;17400;52.392;9.750;2022-08-11T11:18:18;101661.25;;;26.46;36.19
30636;BME280;17400;52.392;9.750;2022-08-11T11:20:50;101655.16;;;26.49;36.11
30636;BME280;17400;52.392;9.750;2022-08-11T11:23:23;101661.72;;;26.68;35.28
30636;BME280;17400;52.392;9.750;2022-08-11T11:26:04;101664.50;;;26.68;35.48
30636;BME280;17400;52.392;9.750;2022-08-11T11:29:04;101659.50;;;26.70;35.21
30636;BME280;17400;52.392;9.750;2022-08-11T11:31:45;101655.88;;;26.70;35.78
30636;BME280;17400;52.392;9.750;2022-08-11T11:34:32;101658.97;;;26.73;35.25
30636;BME280;17400;52.392;9.750;2022-08-11T11:37:19;101657.84;;;26.80;35.57
30636;BME280;17400;52.392;9.750;2022-08-11T11:39:49;101653.66;;;26.87;35.74
30636;BME280;17400;52.392;9.750;2022-08-11T11:42:18;101648.78;;;27.14;34.62
30636;BME280;17400;52.392;9.750;2022-08-11T11:44:47;101641.47;;;27.28;34.67
30636;BME280;17400;52.392;9.750;2022-08-11T11:47:19;101633.94;;;27.34;34.33
30636;BME280;17400;52.392;9.750;2022-08-11T11:49:49;101634.22;;;27.37;34.40
30636;BME280;17400;52.392;9.750;2022-08-11T11:52:20;101635.47;;;27.55;32.58
30636;BME280;17400;52.392;9.750;2022-08-11T11:54:50;101641.69;;;27.76;32.71
30636;BME280;17400;52.392;9.750;2022-08-11T11:57:19;101638.78;;;27.92;32.78
30636;BME280;17400;52.392;9.750;2022-08-11T12:00:08;101644.34;;;27.92;32.88
30636;BME280;17400;52.392;9.750;2022-08-11T12:03:01;101635.53;;;28.14;32.09
30636;BME280;17400;52.392;9.750;2022-08-11T12:05:33;101629.19;;;28.08;32.24
30636;BME280;17400;52.392;9.750;2022-08-11T12:08:02;101628.22;;;28.23;31.26
30636;BME280;17400;52.392;9.750;2022-08-11T12:10:43;101619.19;;;28.32;31.00
30636;BME280;17400;52.392;9.750;2022-08-11T12:13:11;101622.16;;;28.40;31.24
30636;BME280;17400;52.392;9.750;2022-08-11T12:16:13;101615.22;;;28.62;30.42
30636;BME280;17400;52.392;9.750;2022-08-11T12:19:04;101611.28;;;28.87;29.57
30636;BME280;17400;52.392;9.750;2022-08-11T12:21:34;101611.66;;;29.00;29.44
30636;BME280;17400;52.392;9.750;2022-08-11T12:24:03;101607.00;;;29.14;29.08
30636;BME280;17400;52.392;9.750;2022-08-11T12:26:55;101597.59;;;29.29;28.62
30636;BME280;17400;52.392;9.750;2022-08-11T12:29:46;101596.94;;;29.37;28.55
30636;BME280;17400;52.392;9.750;2022-08-11T12:32:23;101603.25;;;29.43;27.61
30636;BME280;17400;52.392;9.750;2022-08-11T12:34:52;101597.97;;;29.41;28.36
30636;BME280;17400;52.392;9.750;2022-08-11T12:37:27;101594.56;;;29.45;28.11
30636;BME280;17400;52.392;9.750;2022-08-11T12:39:59;101591.69;;;29.50;27.99
30636;BME280;17400;52.392;9.750;2022-08-11T12:43:06;101584.34;;;29.73;28.04
30636;BME280;17400;52.392;9.750;2022-08-11T12:46:07;101583.94;;;29.80;27.79
30636;BME280;17400;52.392;9.750;2022-08-11T12:48:41;101577.09;;;29.86;26.93
30636;BME280;17400;52.392;9.750;2022-08-11T12:51:32;101572.81;;;29.94;27.36
30636;BME280;17400;52.392;9.750;2022-08-11T12:54:47;101567.56;;;30.06;27.69
30636;BME280;17400;52.392;9.750;2022-08-11T12:57:21;101572.53;;;30.09;28.34
30636;BME280;17400;52.392;9.750;2022-08-11T13:00:10;101559.59;;;30.13;27.59
30636;BME280;17400;52.392;9.750;2022-08-11T13:02:56;101554.41;;;30.06;28.06
30636;BME280;17400;52.392;9.750;2022-08-11T13:05:43;101559.81;;;30.17;27.41
30636;BME280;17400;52.392;9.750;2022-08-11T13:08:13;101556.41;;;30.34;27.50
30636;BME280;17400;52.392;9.750;2022-08-11T13:10:43;101550.81;;;30.34;26.90
30636;BME280;17400;52.392;9.750;2022-08-11T13:13:30;101553.19;;;30.40;27.28
30636;BME280;17400;52.392;9.750;2022-08-11T13:16:19;101543.66;;;30.55;26.87
30636;BME280;17400;52.392;9.750;2022-08-11T13:18:49;101542.22;;;30.58;27.51
30636;BME280;17400;52.392;9.750;2022-08-11T13:21:20;101527.50;;;30.66;27.43
30636;BME280;17400;52.392;9.750;2022-08-11T13:23:49;101529.81;;;30.87;26.45
30636;BME280;17400;52.392;9.750;2022-08-11T13:26:33;101541.97;;;31.05;25.77
30636;BME280;17400;52.392;9.750;2022-08-11T13:29:15;101527.56;;;31.12;25.42
30636;BME280;17400;52.392;9.750;2022-08-11T13:31:43;101522.81;;;31.12;25.43
30636;BME280;17400;52.392;9.750;2022-08-11T13:34:12;101518.69;;;31.10;25.00
30636;BME280;17400;52.392;9.750;2022-08-11T13:36:42;101517.91;;;31.18;25.64
30636;BME280;17400;52.392;9.750;2022-08-11T13:39:11;101522.72;;;31.26;25.48
30636;BME280;17400;52.392;9.750;2022-08-11T13:41:42;101514.06;;;31.36;25.80
30636;BME280;17400;52.392;9.750;2022-08-11T13:44:15;101517.06;;;31.40;25.65
30636;BME280;17400;52.392;9.750;2022-08-11T13:46:51;101522.41;;;31.50;25.41
30636;BME280;17400;52.392;9.750;2022-08-11T13:49:21;101516.34;;;31.57;24.87
30636;BME280;17400;52.392;9.750;2022-08-11T13:51:49;101511.78;;;31.61;25.56
30636;BME280;17400;52.392;9.750;2022-08-11T13:54:20;101510.50;;;31.67;25.09
30636;BME280;17400;52.392;9.750;2022-08-11T13:56:52;101508.72;;;31.80;25.17
30636;BME280;17400;52.392;9.750;2022-08-11T13:59:22;101514.72;;;31.96;24.20
30636;BME280;17400;52.392;9.750;2022-08-11T14:01:57;101513.59;;;31.97;23.54
30636;BME280;17400;52.392;9.750;2022-08-11T14:04:50;101508.84;;;32.06;23.96
30636;BME280;17400;52.392;9.750;2022-08-11T14:07:20;101502.91;;;32.08;23.54
30636;BME280;17400;52.392;9.750;2022-08-11T14:09:54;101502.09;;;32.08;23.67
30636;BME280;17400;52.392;9.750;2022-08-11T14:12:26;101499.78;;;32.10;22.94
30636;BME280;17400;52.392;9.750;2022-08-11T14:15:15;101494.81;;;32.06;24.77
30636;BME280;17400;52.392;9.750;2022-08-11T14:17:50;101491.88;;;32.12;25.23
30636;BME280;17400;52.392;9.750;2022-08-11T14:20:19;101491.09;;;32.20;25.21
30636;BME280;17400;52.392;9.750;2022-08-11T14:23:08;101495.56;;;32.21;25.07
30636;BME280;17400;52.392;9.750;2022-08-11T14:25:39;101485.19;;;32.30;25.45
30636;BME280;17400;52.392;9.750;2022-08-11T14:28:32;101482.41;;;32.30;25.69
30636;BME280;17400;52.392;9.750;2022-08-11T14:31:10;101480.09;;;32.32;25.54
30636;BME280;17400;52.392;9.750;2022-08-11T14:33:39;101476.78;;;32.30;24.78
30636;BME280;17400;52.392;9.750;2022-08-11T14:36:29;101485.53;;;32.46;25.25
30636;BME280;17400;52.392;9.750;2022-08-11T14:39:00;101470.22;;;32.61;24.21
30636;BME280;17400;52.392;9.750;2022-08-11T14:41:30;101464.59;;;32.61;25.08
30636;BME280;17400;52.392;9.750;2022-08-11T14:44:37;101466.63;;;32.78;24.89
30636;BME280;17400;52.392;9.750;2022-08-11T14:47:24;101470.72;;;32.63;23.68
30636;BME280;17400;52.392;9.750;2022-08-11T14:49:55;101471.88;;;32.62;23.61
30636;BME280;17400;52.392;9.750;2022-08-11T14:52:41;101477.47;;;32.62;23.49
30636;BME280;17400;52.392;9.750;2022-08-11T14:55:11;101475.03;;;32.69;24.60
30636;BME280;17400;52.392;9.750;2022-08-11T14:57:58;101466.59;;;32.69;24.33
30636;BME280;17400;52.392;9.750;2022-08-11T15:00:28;101465.28;;;32.76;24.49
30636;BME280;17400;52.392;9.750;2022-08-11T15:02:57;101468.09;;;32.76;25.08
30636;BME280;17400;52.392;9.750;2022-08-11T15:05:40;101465.28;;;32.67;24.52
30636;BME280;17400;52.392;9.750;2022-08-11T15:08:26;101466.75;;;32.55;25.31
30636;BME280;17400;52.392;9.750;2022-08-11T15:11:14;101456.03;;;32.49;25.00
30636;BME280;17400;52.392;9.750;2022-08-11T15:14:01;101457.75;;;32.10;25.23
30636;BME280;17400;52.392;9.750;2022-08-11T15:16:31;101468.59;;;31.85;25.66
30636;BME280;17400;52.392;9.750;2022-08-11T15:19:19;101452.38;;;31.64;25.26
30636;BME280;17400;52.392;9.750;2022-08-11T15:21:47;101459.19;;;31.49;25.54
30636;BME280;17400;52.392;9.750;2022-08-11T15:24:33;101455.84;;;31.38;25.94
30636;BME280;17400;52.392;9.750;2022-08-11T15:27:04;101455.59;;;31.26;26.13
30636;BME280;17400;52.392;9.750;2022-08-11T15:29:54;101449.00;;;30.99;25.63
30636;BME280;17400;52.392;9.750;2022-08-11T15:33:03;101443.16;;;30.87;26.07
30636;BME280;17400;52.392;9.750;2022-08-11T15:35:51;101444.06;;;30.73;26.33
30636;BME280;17400;52.392;9.750;2022-08-11T15:38:41;101437.69;;;30.59;26.57
30636;BME280;17400;52.392;9.750;2022-08-11T15:41:12;101439.75;;;30.53;26.29
30636;BME280;17400;52.392;9.750;2022-08-11T15:44:05;101431.72;;;30.38;26.33
30636;BME280;17400;52.392;9.750;2022-08-11T15:47:12;101430.50;;;30.30;26.75
30636;BME280;17400;52.392;9.750;2022-08-11T15:49:44;101432.28;;;30.26;26.25
30636;BME280;17400;52.392;9.750;2022-08-11T15:52:42;101424.13;;;30.16;26.50
30636;BME280;17400;52.392;9.750;2022-08-11T15:55:13;101425.91;;;30.12;25.89
30636;BME280;17400;52.392;9.750;2022-08-11T15:57:42;101429.44;;;30.03;26.44
30636;BME280;17400;52.392;9.750;2022-08-11T16:00:28;101436.16;;;30.02;26.72
30636;BME280;17400;52.392;9.750;2022-08-11T16:03:25;101419.41;;;30.02;26.54
30636;BME280;17400;52.392;9.750;2022-08-11T16:06:34;101415.56;;;29.98;25.69
30636;BME280;17400;52.392;9.750;2022-08-11T16:09:07;101430.13;;;29.95;26.20
30636;BME280;17400;52.392;9.750;2022-08-11T16:11:45;101420.00;;;29.85;26.32
30636;BME280;17400;52.392;9.750;2022-08-11T16:14:15;101420.31;;;29.84;26.64
30636;BME280;17400;52.392;9.750;2022-08-11T16:17:02;101417.84;;;29.82;26.57
30636;BME280;17400;52.392;9.750;2022-08-11T16:19:32;101415.66;;;29.79;26.24
30636;BME280;17400;52.392;9.750;2022-08-11T16:22:05;101409.03;;;29.75;26.56
30636;BME280;17400;52.392;9.750;2022-08-11T16:24:36;101395.81;;;29.67;26.93
30636;BME280;17400;52.392;9.750;2022-08-11T16:27:25;101403.47;;;29.61;26.25
30636;BME280;17400;52.392;9.750;2022-08-11T16:29:55;101401.09;;;29.54;25.90
30636;BME280;17400;52.392;9.750;2022-08-11T16:32:23;101402.03;;;29.50;25.86
30636;BME280;17400;52.392;9.750;2022-08-11T16:34:56;101396.75;;;29.48;26.41
30636;BME280;17400;52.392;9.750;2022-08-11T16:37:44;101401.00;;;29.46;26.97
30636;BME280;17400;52.392;9.750;2022-08-11T16:40:31;101401.00;;;29.46;26.97
30636;BME280;17400;52.392;9.750;2022-08-11T16:43:01;101402.97;;;29.45;26.53
30636;BME280;17400;52.392;9.750;2022-08-11T16:45:48;101399.13;;;29.41;26.85
30636;BME280;17400;52.392;9.750;2022-08-11T16:48:35;101400.56;;;29.38;27.12
30636;BME280;17400;52.392;9.750;2022-08-11T16:51:05;101404.50;;;29.37;27.02
30636;BME280;17400;52.392;9.750;2022-08-11T16:53:35;101399.53;;;29.34;27.50
30636;BME280;17400;52.392;9.750;2022-08-11T16:56:27;101393.75;;;29.31;27.38
30636;BME280;17400;52.392;9.750;2022-08-11T16:58:59;101394.56;;;29.31;26.88
30636;BME280;17400;52.392;9.750;2022-08-11T17:01:47;101395.38;;;29.32;27.39
30636;BME280;17400;52.392;9.750;2022-08-11T17:04:24;101397.44;;;29.26;27.58
30636;BME280;17400;52.392;9.750;2022-08-11T17:07:13;101391.13;;;29.20;28.00
30636;BME280;17400;52.392;9.750;2022-08-11T17:10:22;101393.78;;;29.12;28.07
30636;BME280;17400;52.392;9.750;2022-08-11T17:13:25;101396.38;;;29.08;28.49
30636;BME280;17400;52.392;9.750;2022-08-11T17:16:03;101388.28;;;29.06;28.31
30636;BME280;17400;52.392;9.750;2022-08-11T17:18:42;101386.13;;;29.03;28.53
30636;BME280;17400;52.392;9.750;2022-08-11T17:21:17;101387.56;;;29.01;28.76
30636;BME280;17400;52.392;9.750;2022-08-11T17:23:49;101379.53;;;28.99;28.84
30636;BME280;17400;52.392;9.750;2022-08-11T17:26:23;101383.97;;;29.00;29.20
30636;BME280;17400;52.392;9.750;2022-08-11T17:28:56;101388.09;;;29.03;29.07
30636;BME280;17400;52.392;9.750;2022-08-11T17:31:25;101383.88;;;29.05;28.94
30636;BME280;17400;52.392;9.750;2022-08-11T17:34:12;101387.78;;;29.04;28.93
30636;BME280;17400;52.392;9.750;2022-08-11T17:36:57;101383.88;;;29.05;28.83
30636;BME280;17400;52.392;9.750;2022-08-11T17:39:29;101375.22;;;29.07;29.30
30636;BME280;17400;52.392;9.750;2022-08-11T17:42:00;101386.66;;;29.05;28.96
30636;BME280;17400;52.392;9.750;2022-08-11T17:45:02;101384.69;;;29.06;28.35
30636;BME280;17400;52.392;9.750;2022-08-11T17:47:48;101383.34;;;29.03;28.94
30636;BME280;17400;52.392;9.750;2022-08-11T17:50:35;101377.78;;;29.03;28.99
30636;BME280;17400;52.392;9.750;2022-08-11T17:53:03;101376.44;;;29.01;28.67
30636;BME280;17400;52.392;9.750;2022-08-11T17:55:50;101379.31;;;28.96;28.35
30636;BME280;17400;52.392;9.750;2022-08-11T18:01:59;101382.47;;;28.89;28.87
30636;BME280;17400;52.392;9.750;2022-08-11T18:05:00;101381.44;;;28.85;28.79
30636;BME280;17400;52.392;9.750;2022-08-11T18:07:40;101388.22;;;28.79;28.76
30636;BME280;17400;52.392;9.750;2022-08-11T18:10:28;101392.16;;;28.78;29.71
30636;BME280;17400;52.392;9.750;2022-08-11T18:13:13;101388.31;;;28.73;28.99
30636;BME280;17400;52.392;9.750;2022-08-11T18:16:02;101390.06;;;28.69;28.92
30636;BME280;17400;52.392;9.750;2022-08-11T18:18:47;101386.44;;;28.69;29.09
30636;BME280;17400;52.392;9.750;2022-08-11T18:21:34;101393.44;;;28.66;28.86
30636;BME280;17400;52.392;9.750;2022-08-11T18:24:45;101397.91;;;28.67;29.30